sensor_id;sensor_type;location;lat;lon;timestamp;pressure;altitude;pressure_sealevel;temperature;humidity
35989;BME280;22064;42.672;23.282;2023-08-24T00:01:11;94814.13;;;22.32;100.00
35989;BME280;22064;42.672;23.282;2023-08-24T00:03:40;94808.97;;;22.19;100.00
35989;BME280;22064;42.672;23.282;2023-08-24T00:06:06;94818.81;;;22.18;100.00
35989;BME280;22064;42.672;23.282;2023-08-24T00:08:32;94815.38;;;22.26;100.00
35989;BME280;22064;42.672;23.282;2023-08-24T00:10:58;94812.25;;;22.33;100.00
35989;BME280;22064;42.672;23.282;2023-08-24T00:13:24;94810.22;;;22.30;100.00
35989;BME280;22064;42.672;23.282;2023-08-24T00:15:53;94815.06;;;22.28;100.00
35989;BME280;22064;42.672;23.282;2023-08-24T00:18:19;94811.63;;;22.27;100.00
35989;BME280;22064;42.672;23.282;2023-08-24T00:20:48;94806.81;;;22.38;100.00
35989;BME280;22064;42.672;23.282;2023-08-24T00:23:14;94789.94;;;22.43;100.00
35989;BME280;22064;42.672;23.282;2023-08-24T00:25:40;94800.41;;;22.48;100.00
35989;BME280;22064;42.672;23.282;2023-08-24T00:28:06;94791.81;;;22.51;100.00
35989;BME280;22064;42.672;23.282;2023-08-24T00:30:32;94792.28;;;22.53;100.00
35989;BME280;22064;42.672;23.282;2023-08-24T00:32:58;94795.72;;;22.62;100.00
35989;BME280;22064;42.672;23.282;2023-08-24T00:35:24;94804.00;;;22.43;100.00
35989;BME280;22064;42.672;23.282;2023-08-24T00:37:51;94797.69;;;22.04;100.00
35989;BME280;22064;42.672;23.282;2023-08-24T00:40:17;94804.69;;;21.91;100.00
35989;BME280;22064;42.672;23.282;2023-08-24T00:42:44;94803.91;;;21.82;100.00
35989;BME280;22064;42.672;23.282;2023-08-24T00:45:12;94805.13;;;21.76;100.00
35989;BME280;22064;42.672;23.282;2023-08-24T00:47:40;94800.72;;;21.63;100.00
35989;BME280;22064;42.672;23.282;2023-08-24T00:50:08;94808.53;;;21.59;100.00
35989;BME280;22064;42.672;23.282;2023-08-24T00:52:37;94809.22;;;21.42;100.00
35989;BME280;22064;42.672;23.282;2023-08-24T00:55:05;94812.72;;;21.29;100.00
35989;BME280;22064;42.672;23.282;2023-08-24T00:57:31;94808.53;;;21.28;100.00
35989;BME280;22064;42.672;23.282;2023-08-24T01:00:02;94800.38;;;21.47;100.00
35989;BME280;22064;42.672;23.282;2023-08-24T01:02:31;94804.44;;;21.53;100.00
35989;BME280;22064;42.672;23.282;2023-08-24T01:04:58;94807.38;;;21.52;100.00
35989;BME280;22064;42.672;23.282;2023-08-24T01:07:24;94807.03;;;21.36;100.00
35989;BME280;22064;42.672;23.282;2023-08-24T01:09:52;94807.56;;;21.24;100.00
35989;BME280;22064;42.672;23.282;2023-08-24T01:12:32;94805.72;;;21.33;100.00
35989;BME280;22064;42.672;23.282;2023-08-24T01:15:16;94802.38;;;21.41;100.00
35989;BME280;22064;42.672;23.282;2023-08-24T01:17:45;94800.94;;;21.35;100.00
35989;BME280;22064;42.672;23.282;2023-08-24T01:20:14;94793.59;;;21.32;100.00
35989;BME280;22064;42.672;23.282;2023-08-24T01:25:46;94787.09;;;21.07;100.00
35989;BME280;22064;42.672;23.282;2023-08-24T01:28:16;94768.38;;;21.04;100.00
35989;BME280;22064;42.672;23.282;2023-08-24T01:30:43;94804.16;;;21.32;100.00
35989;BME280;22064;42.672;23.282;2023-08-24T01:33:13;94800.81;;;21.40;100.00
35989;BME280;22064;42.672;23.282;2023-08-24T01:35:40;94801.03;;;21.53;100.00
35989;BME280;22064;42.672;23.282;2023-08-24T01:38:08;94800.88;;;21.58;100.00
35989;BME280;22064;42.672;23.282;2023-08-24T01:41:01;94798.13;;;21.72;100.00
35989;BME280;22064;42.672;23.282;2023-08-24T01:43:32;94800.31;;;21.78;100.00
35989;BME280;22064;42.672;23.282;2023-08-24T01:46:05;94797.94;;;21.77;100.00
35989;BME280;22064;42.672;23.282;2023-08-24T01:48:32;94807.63;;;21.73;100.00
35989;BME280;22064;42.672;23.282;2023-08-24T01:51:00;94801.38;;;21.68;100.00
35989;BME280;22064;42.672;23.282;2023-08-24T01:53:27;94811.38;;;21.72;100.00
35989;BME280;22064;42.672;23.282;2023-08-24T01:55:55;94809.00;;;21.70;100.00
35989;BME280;22064;42.672;23.282;2023-08-24T01:58:22;94803.69;;;21.61;100.00
35989;BME280;22064;42.672;23.282;2023-08-24T02:00:48;94802.59;;;21.71;100.00
35989;BME280;22064;42.672;23.282;2023-08-24T02:03:14;94804.28;;;21.50;100.00
35989;BME280;22064;42.672;23.282;2023-08-24T02:05:40;94804.13;;;20.92;100.00
35989;BME280;22064;42.672;23.282;2023-08-24T02:08:06;94808.22;;;20.76;100.00
35989;BME280;22064;42.672;23.282;2023-08-24T02:10:32;94809.53;;;20.65;100.00
35989;BME280;22064;42.672;23.282;2023-08-24T02:12:57;94819.53;;;20.68;100.00
35989;BME280;22064;42.672;23.282;2023-08-24T02:15:23;94816.63;;;20.56;100.00
35989;BME280;22064;42.672;23.282;2023-08-24T02:17:50;94808.56;;;20.38;100.00
35989;BME280;22064;42.672;23.282;2023-08-24T02:20:16;94816.50;;;20.24;100.00
35989;BME280;22064;42.672;23.282;2023-08-24T02:22:42;94825.88;;;20.08;100.00
35989;BME280;22064;42.672;23.282;2023-08-24T02:25:09;94821.56;;;19.98;100.00
35989;BME280;22064;42.672;23.282;2023-08-24T02:27:35;94818.44;;;19.96;100.00
35989;BME280;22064;42.672;23.282;2023-08-24T02:30:01;94822.34;;;19.99;100.00
35989;BME280;22064;42.672;23.282;2023-08-24T02:32:28;94816.19;;;20.03;100.00
35989;BME280;22064;42.672;23.282;2023-08-24T02:34:54;94805.81;;;20.07;100.00
35989;BME280;22064;42.672;23.282;2023-08-24T02:37:20;94820.44;;;20.27;100.00
35989;BME280;22064;42.672;23.282;2023-08-24T02:39:46;94807.56;;;20.34;100.00
35989;BME280;22064;42.672;23.282;2023-08-24T02:42:12;94801.47;;;20.47;100.00
35989;BME280;22064;42.672;23.282;2023-08-24T02:44:38;94804.81;;;20.53;100.00
35989;BME280;22064;42.672;23.282;2023-08-24T02:47:04;94799.75;;;20.65;100.00
35989;BME280;22064;42.672;23.282;2023-08-24T02:49:30;94781.44;;;20.69;100.00
35989;BME280;22064;42.672;23.282;2023-08-24T02:51:56;94795.94;;;20.80;100.00
35989;BME280;22064;42.672;23.282;2023-08-24T02:54:22;94787.84;;;20.76;100.00
35989;BME280;22064;42.672;23.282;2023-08-24T02:56:48;94786.69;;;20.91;100.00
35989;BME280;22064;42.672;23.282;2023-08-24T02:59:14;94786.38;;;20.93;100.00
35989;BME280;22064;42.672;23.282;2023-08-24T03:01:40;94787.63;;;20.95;100.00
35989;BME280;22064;42.672;23.282;2023-08-24T03:04:07;94800.88;;;20.95;100.00
35989;BME280;22064;42.672;23.282;2023-08-24T03:06:33;94795.13;;;20.71;100.00
35989;BME280;22064;42.672;23.282;2023-08-24T03:09:00;94792.66;;;20.52;100.00
35989;BME280;22064;42.672;23.282;2023-08-24T03:11:27;94771.91;;;20.09;100.00
35989;BME280;22064;42.672;23.282;2023-08-24T03:13:53;94794.25;;;20.03;100.00
35989;BME280;22064;42.672;23.282;2023-08-24T03:16:20;94820.13;;;19.92;100.00
35989;BME280;22064;42.672;23.282;2023-08-24T03:18:46;94816.38;;;19.93;100.00
35989;BME280;22064;42.672;23.282;2023-08-24T03:21:12;94811.38;;;20.05;100.00
35989;BME280;22064;42.672;23.282;2023-08-24T03:23:38;94819.38;;;20.14;100.00
35989;BME280;22064;42.672;23.282;2023-08-24T03:26:06;94817.94;;;20.08;100.00
35989;BME280;22064;42.672;23.282;2023-08-24T03:28:32;94823.72;;;19.96;100.00
35989;BME280;22064;42.672;23.282;2023-08-24T03:31:00;94840.00;;;19.76;100.00
35989;BME280;22064;42.672;23.282;2023-08-24T03:33:27;94831.56;;;19.74;100.00
35989;BME280;22064;42.672;23.282;2023-08-24T03:35:54;94828.06;;;19.78;100.00
35989;BME280;22064;42.672;23.282;2023-08-24T03:38:20;94828.94;;;19.74;100.00
35989;BME280;22064;42.672;23.282;2023-08-24T03:40:46;94832.16;;;19.71;100.00
35989;BME280;22064;42.672;23.282;2023-08-24T03:43:11;94844.00;;;19.87;100.00
35989;BME280;22064;42.672;23.282;2023-08-24T03:45:38;94840.97;;;19.80;100.00
35989;BME280;22064;42.672;23.282;2023-08-24T03:48:05;94850.06;;;20.01;100.00
35989;BME280;22064;42.672;23.282;2023-08-24T03:50:31;94853.47;;;20.16;100.00
35989;BME280;22064;42.672;23.282;2023-08-24T03:52:57;94859.91;;;20.23;100.00
35989;BME280;22064;42.672;23.282;2023-08-24T03:55:23;94853.84;;;20.23;100.00
35989;BME280;22064;42.672;23.282;2023-08-24T03:57:49;94852.75;;;20.24;100.00
35989;BME280;22064;42.672;23.282;2023-08-24T04:00:15;94846.34;;;20.39;100.00
35989;BME280;22064;42.672;23.282;2023-08-24T04:02:43;94851.34;;;20.54;100.00
35989;BME280;22064;42.672;23.282;2023-08-24T04:05:14;94859.63;;;20.61;100.00
35989;BME280;22064;42.672;23.282;2023-08-24T04:07:40;94846.47;;;20.70;100.00
35989;BME280;22064;42.672;23.282;2023-08-24T04:10:08;94841.38;;;20.73;100.00
35989;BME280;22064;42.672;23.282;2023-08-24T04:12:34;94854.56;;;20.87;100.00
35989;BME280;22064;42.672;23.282;2023-08-24T04:15:01;94846.97;;;20.94;100.00
35989;BME280;22064;42.672;23.282;2023-08-24T04:17:27;94841.94;;;20.93;100.00
35989;BME280;22064;42.672;23.282;2023-08-24T04:19:53;94854.06;;;20.85;100.00
35989;BME280;22064;42.672;23.282;2023-08-24T04:22:19;94832.75;;;20.68;100.00
35989;BME280;22064;42.672;23.282;2023-08-24T04:24:45;94846.13;;;20.63;100.00
35989;BME280;22064;42.672;23.282;2023-08-24T04:27:11;94838.28;;;20.58;100.00
35989;BME280;22064;42.672;23.282;2023-08-24T04:29:37;94837.72;;;20.47;100.00
35989;BME280;22064;42.672;23.282;2023-08-24T04:32:03;94840.03;;;20.26;100.00
35989;BME280;22064;42.672;23.282;2023-08-24T04:34:30;94856.31;;;20.19;100.00
35989;BME280;22064;42.672;23.282;2023-08-24T04:36:56;94851.59;;;20.16;100.00
35989;BME280;22064;42.672;23.282;2023-08-24T04:39:22;94860.81;;;20.19;100.00
35989;BME280;22064;42.672;23.282;2023-08-24T04:41:48;94846.41;;;20.25;100.00
35989;BME280;22064;42.672;23.282;2023-08-24T04:44:14;94856.81;;;20.07;100.00
35989;BME280;22064;42.672;23.282;2023-08-24T04:46:40;94860.63;;;20.01;100.00
35989;BME280;22064;42.672;23.282;2023-08-24T04:49:06;94854.47;;;19.92;100.00
35989;BME280;22064;42.672;23.282;2023-08-24T04:51:34;94853.09;;;19.95;100.00
35989;BME280;22064;42.672;23.282;2023-08-24T04:54:00;94862.09;;;20.07;100.00
35989;BME280;22064;42.672;23.282;2023-08-24T04:56:26;94858.91;;;20.33;100.00
35989;BME280;22064;42.672;23.282;2023-08-24T04:58:56;94853.38;;;20.57;100.00
35989;BME280;22064;42.672;23.282;2023-08-24T05:01:23;94858.50;;;20.76;100.00
35989;BME280;22064;42.672;23.282;2023-08-24T05:03:51;94849.25;;;20.87;100.00
35989;BME280;22064;42.672;23.282;2023-08-24T05:06:18;94859.66;;;21.06;100.00
35989;BME280;22064;42.672;23.282;2023-08-24T05:08:44;94850.09;;;21.28;100.00
35989;BME280;22064;42.672;23.282;2023-08-24T05:11:16;94863.34;;;21.50;100.00
35989;BME280;22064;42.672;23.282;2023-08-24T05:13:42;94849.78;;;21.52;100.00
35989;BME280;22064;42.672;23.282;2023-08-24T05:16:09;94860.56;;;21.64;100.00
35989;BME280;22064;42.672;23.282;2023-08-24T05:18:35;94859.69;;;21.77;100.00
35989;BME280;22064;42.672;23.282;2023-08-24T05:21:02;94858.81;;;21.90;100.00
35989;BME280;22064;42.672;23.282;2023-08-24T05:23:35;94869.22;;;21.78;100.00
35989;BME280;22064;42.672;23.282;2023-08-24T05:26:02;94862.34;;;21.77;100.00
35989;BME280;22064;42.672;23.282;2023-08-24T05:28:30;94871.91;;;21.87;100.00
35989;BME280;22064;42.672;23.282;2023-08-24T05:30:56;94872.34;;;21.89;100.00
35989;BME280;22064;42.672;23.282;2023-08-24T05:33:23;94877.03;;;21.92;100.00
35989;BME280;22064;42.672;23.282;2023-08-24T05:35:50;94875.53;;;22.00;100.00
35989;BME280;22064;42.672;23.282;2023-08-24T05:38:17;94888.16;;;22.11;100.00
35989;BME280;22064;42.672;23.282;2023-08-24T05:40:46;94888.78;;;22.08;100.00
35989;BME280;22064;42.672;23.282;2023-08-24T05:43:13;94901.31;;;22.17;100.00
35989;BME280;22064;42.672;23.282;2023-08-24T05:45:40;94900.31;;;21.64;100.00
35989;BME280;22064;42.672;23.282;2023-08-24T05:48:07;94902.09;;;21.46;100.00
35989;BME280;22064;42.672;23.282;2023-08-24T05:50:33;94895.06;;;21.41;100.00
35989;BME280;22064;42.672;23.282;2023-08-24T05:52:59;94901.94;;;21.42;100.00
35989;BME280;22064;42.672;23.282;2023-08-24T05:55:25;94895.69;;;21.38;100.00
35989;BME280;22064;42.672;23.282;2023-08-24T05:57:51;94905.00;;;21.36;100.00
35989;BME280;22064;42.672;23.282;2023-08-24T06:00:17;94904.84;;;21.10;100.00
35989;BME280;22064;42.672;23.282;2023-08-24T06:02:43;94900.75;;;21.04;100.00
35989;BME280;22064;42.672;23.282;2023-08-24T06:05:09;94894.94;;;21.24;100.00
35989;BME280;22064;42.672;23.282;2023-08-24T06:07:37;94900.00;;;21.57;100.00
35989;BME280;22064;42.672;23.282;2023-08-24T06:10:03;94900.53;;;21.76;100.00
35989;BME280;22064;42.672;23.282;2023-08-24T06:12:29;94900.09;;;21.52;100.00
35989;BME280;22064;42.672;23.282;2023-08-24T06:14:55;94903.81;;;21.73;100.00
35989;BME280;22064;42.672;23.282;2023-08-24T06:17:21;94893.78;;;22.10;100.00
35989;BME280;22064;42.672;23.282;2023-08-24T06:19:47;94899.31;;;22.40;100.00
35989;BME280;22064;42.672;23.282;2023-08-24T06:22:13;94898.91;;;22.64;100.00
35989;BME280;22064;42.672;23.282;2023-08-24T06:24:39;94906.44;;;22.96;100.00
35989;BME280;22064;42.672;23.282;2023-08-24T06:27:04;94901.38;;;23.38;100.00
35989;BME280;22064;42.672;23.282;2023-08-24T06:29:30;94895.44;;;23.24;100.00
35989;BME280;22064;42.672;23.282;2023-08-24T06:31:56;94902.47;;;23.46;100.00
35989;BME280;22064;42.672;23.282;2023-08-24T06:34:23;94904.03;;;23.29;100.00
35989;BME280;22064;42.672;23.282;2023-08-24T06:36:50;94900.03;;;23.15;100.00
35989;BME280;22064;42.672;23.282;2023-08-24T06:39:16;94901.56;;;23.24;100.00
35989;BME280;22064;42.672;23.282;2023-08-24T06:41:42;94896.47;;;23.58;100.00
35989;BME280;22064;42.672;23.282;2023-08-24T06:44:08;94902.38;;;23.63;100.00
35989;BME280;22064;42.672;23.282;2023-08-24T06:46:34;94898.53;;;23.52;100.00
35989;BME280;22064;42.672;23.282;2023-08-24T06:49:00;94898.78;;;23.68;100.00
35989;BME280;22064;42.672;23.282;2023-08-24T06:51:27;94897.97;;;23.85;100.00
35989;BME280;22064;42.672;23.282;2023-08-24T06:53:53;94906.00;;;24.35;100.00
35989;BME280;22064;42.672;23.282;2023-08-24T06:56:20;94895.34;;;24.35;100.00
35989;BME280;22064;42.672;23.282;2023-08-24T06:58:47;94899.75;;;24.61;100.00
35989;BME280;22064;42.672;23.282;2023-08-24T07:01:13;94895.41;;;24.56;100.00
35989;BME280;22064;42.672;23.282;2023-08-24T07:03:39;94893.38;;;23.94;100.00
35989;BME280;22064;42.672;23.282;2023-08-24T07:06:06;94887.16;;;24.19;100.00
35989;BME280;22064;42.672;23.282;2023-08-24T07:08:34;94880.66;;;24.08;100.00
35989;BME280;22064;42.672;23.282;2023-08-24T07:11:03;94895.03;;;24.46;100.00
35989;BME280;22064;42.672;23.282;2023-08-24T07:13:29;94882.09;;;24.56;100.00
35989;BME280;22064;42.672;23.282;2023-08-24T07:15:55;94886.72;;;25.01;100.00
35989;BME280;22064;42.672;23.282;2023-08-24T07:18:21;94881.88;;;25.03;100.00
35989;BME280;22064;42.672;23.282;2023-08-24T07:20:47;94889.94;;;25.16;100.00
35989;BME280;22064;42.672;23.282;2023-08-24T07:23:13;94882.94;;;25.23;100.00
35989;BME280;22064;42.672;23.282;2023-08-24T07:25:39;94883.56;;;25.41;100.00
35989;BME280;22064;42.672;23.282;2023-08-24T07:28:06;94884.59;;;25.49;100.00
35989;BME280;22064;42.672;23.282;2023-08-24T07:30:35;94876.28;;;25.63;100.00
35989;BME280;22064;42.672;23.282;2023-08-24T07:33:02;94879.09;;;25.91;100.00
35989;BME280;22064;42.672;23.282;2023-08-24T07:35:31;94878.13;;;26.08;100.00
35989;BME280;22064;42.672;23.282;2023-08-24T07:37:57;94873.66;;;26.24;100.00
35989;BME280;22064;42.672;23.282;2023-08-24T07:40:23;94882.16;;;26.54;100.00
35989;BME280;22064;42.672;23.282;2023-08-24T07:42:51;94881.78;;;26.80;100.00
35989;BME280;22064;42.672;23.282;2023-08-24T07:45:19;94883.00;;;26.83;100.00
35989;BME280;22064;42.672;23.282;2023-08-24T07:47:45;94877.13;;;27.05;95.71
35989;BME280;22064;42.672;23.282;2023-08-24T07:50:11;94878.63;;;26.50;90.02
35989;BME280;22064;42.672;23.282;2023-08-24T07:52:38;94870.94;;;26.61;92.31
35989;BME280;22064;42.672;23.282;2023-08-24T07:55:05;94874.97;;;26.55;90.97
35989;BME280;22064;42.672;23.282;2023-08-24T07:57:35;94876.03;;;26.66;86.32
35989;BME280;22064;42.672;23.282;2023-08-24T08:00:03;94870.66;;;27.06;84.80
35989;BME280;22064;42.672;23.282;2023-08-24T08:02:38;94876.25;;;27.01;81.99
35989;BME280;22064;42.672;23.282;2023-08-24T08:05:04;94871.88;;;27.09;81.41
35989;BME280;22064;42.672;23.282;2023-08-24T08:07:31;94870.41;;;27.39;82.98
35989;BME280;22064;42.672;23.282;2023-08-24T08:09:57;94871.22;;;27.88;79.68
35989;BME280;22064;42.672;23.282;2023-08-24T08:12:23;94879.59;;;28.18;75.06
35989;BME280;22064;42.672;23.282;2023-08-24T08:14:49;94873.38;;;28.14;73.31
35989;BME280;22064;42.672;23.282;2023-08-24T08:17:15;94879.31;;;27.75;78.42
35989;BME280;22064;42.672;23.282;2023-08-24T08:19:41;94874.06;;;28.11;75.89
35989;BME280;22064;42.672;23.282;2023-08-24T08:22:07;94871.31;;;28.07;74.63
35989;BME280;22064;42.672;23.282;2023-08-24T08:24:33;94862.09;;;28.40;71.57
35989;BME280;22064;42.672;23.282;2023-08-24T08:26:59;94867.78;;;28.73;69.42
35989;BME280;22064;42.672;23.282;2023-08-24T08:29:25;94872.38;;;28.73;67.41
35989;BME280;22064;42.672;23.282;2023-08-24T08:31:51;94864.84;;;28.78;66.81
35989;BME280;22064;42.672;23.282;2023-08-24T08:34:17;94858.34;;;28.80;64.63
35989;BME280;22064;42.672;23.282;2023-08-24T08:36:43;94864.69;;;28.91;63.28
35989;BME280;22064;42.672;23.282;2023-08-24T08:39:09;94872.44;;;29.15;61.25
35989;BME280;22064;42.672;23.282;2023-08-24T08:41:41;94846.78;;;29.14;59.52
35989;BME280;22064;42.672;23.282;2023-08-24T08:44:10;94863.69;;;28.99;60.36
35989;BME280;22064;42.672;23.282;2023-08-24T08:46:38;94861.94;;;28.87;60.22
35989;BME280;22064;42.672;23.282;2023-08-24T08:49:06;94859.88;;;28.81;59.18
35989;BME280;22064;42.672;23.282;2023-08-24T08:51:37;94856.53;;;29.03;59.16
35989;BME280;22064;42.672;23.282;2023-08-24T08:54:06;94849.91;;;29.39;58.32
35989;BME280;22064;42.672;23.282;2023-08-24T08:56:32;94842.06;;;29.73;57.41
35989;BME280;22064;42.672;23.282;2023-08-24T08:58:59;94842.59;;;30.09;55.32
35989;BME280;22064;42.672;23.282;2023-08-24T09:01:29;94839.06;;;30.28;53.96
35989;BME280;22064;42.672;23.282;2023-08-24T09:03:57;94829.78;;;30.52;52.63
35989;BME280;22064;42.672;23.282;2023-08-24T09:06:23;94817.38;;;30.74;52.68
35989;BME280;22064;42.672;23.282;2023-08-24T09:08:50;94830.44;;;31.05;51.12
35989;BME280;22064;42.672;23.282;2023-08-24T09:11:17;94818.16;;;31.08;49.98
35989;BME280;22064;42.672;23.282;2023-08-24T09:13:47;94825.16;;;31.13;49.88
35989;BME280;22064;42.672;23.282;2023-08-24T09:16:13;94822.41;;;31.09;49.58
35989;BME280;22064;42.672;23.282;2023-08-24T09:18:44;94822.41;;;31.09;49.33
35989;BME280;22064;42.672;23.282;2023-08-24T09:21:14;94810.16;;;30.78;50.14
35989;BME280;22064;42.672;23.282;2023-08-24T09:23:44;94804.53;;;30.56;50.58
35989;BME280;22064;42.672;23.282;2023-08-24T09:26:11;94802.66;;;30.60;51.19
35989;BME280;22064;42.672;23.282;2023-08-24T09:28:37;94795.22;;;30.80;51.54
35989;BME280;22064;42.672;23.282;2023-08-24T09:31:05;94801.41;;;31.22;50.30
35989;BME280;22064;42.672;23.282;2023-08-24T09:33:31;94792.00;;;31.42;49.19
35989;BME280;22064;42.672;23.282;2023-08-24T09:35:57;94790.66;;;31.66;48.23
35989;BME280;22064;42.672;23.282;2023-08-24T09:38:29;94792.13;;;32.12;47.00
35989;BME280;22064;42.672;23.282;2023-08-24T09:40:56;94785.03;;;32.45;46.30
35989;BME280;22064;42.672;23.282;2023-08-24T09:43:22;94787.28;;;32.42;45.70
35989;BME280;22064;42.672;23.282;2023-08-24T09:45:56;94779.59;;;32.37;44.36
35989;BME280;22064;42.672;23.282;2023-08-24T09:48:23;94779.47;;;31.16;46.70
35989;BME280;22064;42.672;23.282;2023-08-24T09:50:52;94774.75;;;31.06;48.08
35989;BME280;22064;42.672;23.282;2023-08-24T09:53:19;94777.63;;;31.72;47.23
35989;BME280;22064;42.672;23.282;2023-08-24T09:58:17;94758.28;;;32.11;44.64
35989;BME280;22064;42.672;23.282;2023-08-24T10:00:45;94772.72;;;32.47;43.70
35989;BME280;22064;42.672;23.282;2023-08-24T10:03:17;94775.13;;;32.74;43.03
35989;BME280;22064;42.672;23.282;2023-08-24T10:05:53;94764.00;;;32.97;42.05
35989;BME280;22064;42.672;23.282;2023-08-24T10:08:27;94764.81;;;33.01;40.60
35989;BME280;22064;42.672;23.282;2023-08-24T10:10:55;94764.00;;;32.97;40.76
35989;BME280;22064;42.672;23.282;2023-08-24T10:14:02;94751.66;;;32.85;39.51
35989;BME280;22064;42.672;23.282;2023-08-24T10:16:33;94759.81;;;33.10;40.26
35989;BME280;22064;42.672;23.282;2023-08-24T10:19:02;94753.59;;;32.95;40.00
35989;BME280;22064;42.672;23.282;2023-08-24T10:21:29;94746.34;;;33.10;39.90
35989;BME280;22064;42.672;23.282;2023-08-24T10:23:59;94758.69;;;33.47;39.67
35989;BME280;22064;42.672;23.282;2023-08-24T10:26:27;94752.13;;;33.73;38.84
35989;BME280;22064;42.672;23.282;2023-08-24T10:28:54;94750.19;;;33.45;38.31
35989;BME280;22064;42.672;23.282;2023-08-24T10:31:23;94752.91;;;33.16;38.55
35989;BME280;22064;42.672;23.282;2023-08-24T10:33:50;94743.69;;;33.53;38.43
35989;BME280;22064;42.672;23.282;2023-08-24T10:36:18;94748.28;;;33.67;37.27
35989;BME280;22064;42.672;23.282;2023-08-24T10:38:44;94735.53;;;33.46;37.82
35989;BME280;22064;42.672;23.282;2023-08-24T10:41:10;94739.41;;;33.84;37.43
35989;BME280;22064;42.672;23.282;2023-08-24T10:43:40;94743.25;;;33.87;37.27
35989;BME280;22064;42.672;23.282;2023-08-24T10:46:14;94741.31;;;33.76;37.38
35989;BME280;22064;42.672;23.282;2023-08-24T10:51:16;94740.44;;;32.65;38.49
35989;BME280;22064;42.672;23.282;2023-08-24T10:53:46;94741.09;;;32.40;38.40
35989;BME280;22064;42.672;23.282;2023-08-24T10:56:13;94738.38;;;32.33;38.34
35989;BME280;22064;42.672;23.282;2023-08-24T10:58:39;94723.22;;;32.04;38.82
35989;BME280;22064;42.672;23.282;2023-08-24T11:01:05;94752.97;;;31.66;42.24
35989;BME280;22064;42.672;23.282;2023-08-24T11:03:32;94738.09;;;31.32;44.84
35989;BME280;22064;42.672;23.282;2023-08-24T11:05:59;94741.31;;;31.03;47.48
35989;BME280;22064;42.672;23.282;2023-08-24T11:08:44;94732.13;;;30.71;50.02
35989;BME280;22064;42.672;23.282;2023-08-24T11:11:23;94736.00;;;30.40;51.89
35989;BME280;22064;42.672;23.282;2023-08-24T11:14:13;94733.84;;;30.52;49.34
35989;BME280;22064;42.672;23.282;2023-08-24T11:16:42;94731.88;;;30.49;45.08
35989;BME280;22064;42.672;23.282;2023-08-24T11:19:10;94722.84;;;30.65;45.47
35989;BME280;22064;42.672;23.282;2023-08-24T11:21:38;94731.63;;;30.95;44.29
35989;BME280;22064;42.672;23.282;2023-08-24T11:24:05;94722.41;;;30.96;43.36
35989;BME280;22064;42.672;23.282;2023-08-24T11:26:31;94736.75;;;30.74;44.33
35989;BME280;22064;42.672;23.282;2023-08-24T11:28:57;94734.28;;;30.24;45.01
35989;BME280;22064;42.672;23.282;2023-08-24T11:31:24;94736.53;;;29.92;46.14
35989;BME280;22064;42.672;23.282;2023-08-24T11:33:54;94726.31;;;29.75;46.28
35989;BME280;22064;42.672;23.282;2023-08-24T11:36:23;94751.75;;;29.35;46.65
35989;BME280;22064;42.672;23.282;2023-08-24T11:38:52;94754.09;;;28.94;47.82
35989;BME280;22064;42.672;23.282;2023-08-24T11:41:19;94746.53;;;28.99;48.02
35989;BME280;22064;42.672;23.282;2023-08-24T11:43:48;94743.03;;;29.18;47.66
35989;BME280;22064;42.672;23.282;2023-08-24T11:46:19;94746.94;;;29.44;47.04
35989;BME280;22064;42.672;23.282;2023-08-24T11:48:45;94745.97;;;29.59;47.35
35989;BME280;22064;42.672;23.282;2023-08-24T11:51:12;94750.13;;;29.30;48.11
35989;BME280;22064;42.672;23.282;2023-08-24T11:53:40;94748.66;;;28.90;48.40
35989;BME280;22064;42.672;23.282;2023-08-24T11:56:08;94742.72;;;28.58;49.04
35989;BME280;22064;42.672;23.282;2023-08-24T11:58:34;94738.22;;;28.62;48.65
35989;BME280;22064;42.672;23.282;2023-08-24T12:01:03;94737.72;;;28.76;49.46
35989;BME280;22064;42.672;23.282;2023-08-24T12:03:30;94728.91;;;28.75;49.32
35989;BME280;22064;42.672;23.282;2023-08-24T12:06:00;94720.66;;;28.88;49.23
35989;BME280;22064;42.672;23.282;2023-08-24T12:08:28;94714.84;;;28.82;49.08
35989;BME280;22064;42.672;23.282;2023-08-24T12:10:53;94715.59;;;29.02;49.04
35989;BME280;22064;42.672;23.282;2023-08-24T12:13:20;94693.31;;;29.21;48.70
35989;BME280;22064;42.672;23.282;2023-08-24T12:15:46;94693.47;;;29.32;48.19
35989;BME280;22064;42.672;23.282;2023-08-24T12:18:13;94701.19;;;29.37;47.70
35989;BME280;22064;42.672;23.282;2023-08-24T12:20:40;94699.97;;;29.31;48.70
35989;BME280;22064;42.672;23.282;2023-08-24T12:23:07;94703.25;;;28.97;49.87
35989;BME280;22064;42.672;23.282;2023-08-24T12:25:37;94704.47;;;28.81;51.19
35989;BME280;22064;42.672;23.282;2023-08-24T12:30:47;94711.09;;;28.87;51.49
35989;BME280;22064;42.672;23.282;2023-08-24T12:33:26;94720.38;;;28.70;51.78
35989;BME280;22064;42.672;23.282;2023-08-24T12:35:54;94713.72;;;29.06;50.71
35989;BME280;22064;42.672;23.282;2023-08-24T12:38:24;94703.44;;;29.58;48.07
35989;BME280;22064;42.672;23.282;2023-08-24T12:40:51;94700.47;;;29.93;47.11
35989;BME280;22064;42.672;23.282;2023-08-24T12:43:18;94707.94;;;30.37;46.77
35989;BME280;22064;42.672;23.282;2023-08-24T12:45:44;94698.34;;;30.73;45.78
35989;BME280;22064;42.672;23.282;2023-08-24T12:48:10;94698.19;;;30.96;45.06
35989;BME280;22064;42.672;23.282;2023-08-24T12:50:38;94695.81;;;31.32;43.86
35989;BME280;22064;42.672;23.282;2023-08-24T12:53:04;94701.00;;;31.59;43.00
35989;BME280;22064;42.672;23.282;2023-08-24T12:55:32;94709.19;;;31.73;42.55